createdAt,value
2019-05-05T00:00:16.412Z,3.40
2019-05-05T00:03:39.252Z,3.77
2019-05-05T00:06:44.544Z,3.30
2019-05-05T00:09:48.568Z,3.80
2019-05-05T00:13:10.067Z,3.20
2019-05-05T00:16:29.059Z,3.37
2019-05-05T00:19:34.041Z,3.70
2019-05-05T00:22:38.180Z,3.37
2019-05-05T00:25:42.070Z,3.73
2019-05-05T00:28:45.845Z,3.40
2019-05-05T00:31:49.545Z,3.60
2019-05-05T00:34:55.174Z,3.73
2019-05-05T00:37:59.305Z,3.57
2019-05-05T00:41:02.983Z,3.90
2019-05-05T00:44:06.958Z,3.20
2019-05-05T00:47:34.426Z,3.37
2019-05-05T00:50:38.166Z,3.80
2019-05-05T00:53:42.210Z,3.50
2019-05-05T00:56:46.088Z,3.50
2019-05-05T00:59:49.883Z,3.57
2019-05-05T01:02:54.266Z,4.00
2019-05-05T01:06:04.538Z,4.10
2019-05-05T01:09:10.598Z,3.63
2019-05-05T01:12:14.962Z,3.73
2019-05-05T01:15:18.927Z,3.43
2019-05-05T01:18:24.467Z,3.70
2019-05-05T01:21:28.034Z,3.63
2019-05-05T01:24:31.815Z,3.47
2019-05-05T01:27:35.599Z,3.70
2019-05-05T01:30:41.755Z,3.70
2019-05-05T01:33:58.425Z,3.67
2019-05-05T01:37:07.521Z,3.93
2019-05-05T01:40:37.377Z,3.43
2019-05-05T01:43:41.297Z,4.33
2019-05-05T01:46:45.161Z,4.10
2019-05-05T01:49:49.178Z,3.67
2019-05-05T01:52:52.858Z,4.00
2019-05-05T01:55:57.465Z,3.60
2019-05-05T01:59:01.656Z,3.83
2019-05-05T02:02:05.614Z,3.97
2019-05-05T02:05:09.412Z,4.10
2019-05-05T02:08:15.243Z,3.53
2019-05-05T02:11:18.632Z,3.60
2019-05-05T02:14:24.486Z,3.60
2019-05-05T02:17:27.889Z,3.50
2019-05-05T02:20:44.883Z,3.83
2019-05-05T02:23:48.361Z,3.30
2019-05-05T02:26:54.404Z,3.70
2019-05-05T02:30:09.870Z,3.67
2019-05-05T02:33:15.740Z,4.37
2019-05-05T02:36:19.595Z,4.17
2019-05-05T02:39:23.376Z,4.00
2019-05-05T02:42:27.686Z,3.47
2019-05-05T02:45:44.826Z,3.97
2019-05-05T02:48:51.049Z,3.70
2019-05-05T02:51:55.471Z,3.93
2019-05-05T02:54:59.764Z,4.00
2019-05-05T02:58:03.877Z,3.53
2019-05-05T03:01:30.334Z,3.43
2019-05-05T03:04:34.161Z,3.83
2019-05-05T03:07:38.355Z,4.03
2019-05-05T03:10:44.222Z,4.10
2019-05-05T03:13:50.707Z,4.00
2019-05-05T03:16:54.744Z,4.17
2019-05-05T03:19:58.714Z,4.10
2019-05-05T03:23:04.207Z,4.17
2019-05-05T03:26:08.354Z,4.33
2019-05-05T03:29:16.402Z,4.43
2019-05-05T03:32:20.559Z,4.20
2019-05-05T03:35:24.910Z,4.10
2019-05-05T03:38:28.662Z,4.87
2019-05-05T03:41:55.833Z,4.70
2019-05-05T03:45:10.306Z,4.90
2019-05-05T03:48:14.337Z,4.90
2019-05-05T03:51:21.008Z,4.73
2019-05-05T03:54:23.925Z,5.50
2019-05-05T03:57:28.131Z,5.47
2019-05-05T04:01:15.781Z,5.37
2019-05-05T04:04:24.582Z,5.40
2019-05-05T04:07:28.413Z,5.90
2019-05-05T04:10:33.524Z,5.30
2019-05-05T04:13:37.253Z,6.37
2019-05-05T04:16:46.980Z,6.77
2019-05-05T04:19:54.221Z,5.40
2019-05-05T04:22:58.497Z,6.92
2019-05-05T04:26:03.803Z,6.43
2019-05-05T04:29:07.577Z,7.17
2019-05-05T04:32:11.217Z,6.37
2019-05-05T04:35:15.004Z,7.00
2019-05-05T04:38:18.746Z,6.67
2019-05-05T04:41:24.422Z,6.60
2019-05-05T04:44:28.150Z,6.67
2019-05-05T04:47:34.431Z,6.20
2019-05-05T04:50:56.605Z,6.40
2019-05-05T04:54:18.050Z,6.60
2019-05-05T04:57:23.943Z,5.87
2019-05-05T05:00:28.297Z,5.70
2019-05-05T05:03:49.366Z,5.30
2019-05-05T05:06:54.721Z,5.50
2019-05-05T05:09:58.407Z,5.50
2019-05-05T05:13:02.139Z,5.90
2019-05-05T05:16:05.979Z,5.42
2019-05-05T05:19:09.662Z,5.37
2019-05-05T05:22:13.752Z,4.80
2019-05-05T05:25:17.485Z,5.13
2019-05-05T05:28:21.178Z,4.63
2019-05-05T05:31:24.917Z,5.07
2019-05-05T05:34:28.601Z,4.30
2019-05-05T05:37:34.112Z,4.50
2019-05-05T05:40:49.012Z,4.87
2019-05-05T05:44:03.592Z,4.30
2019-05-05T05:47:14.047Z,4.13
2019-05-05T05:50:36.925Z,4.57
2019-05-05T05:53:40.613Z,4.10
2019-05-05T05:56:44.758Z,4.30
2019-05-05T05:59:48.539Z,4.40
2019-05-05T06:02:54.417Z,4.20
2019-05-05T06:05:57.629Z,4.73
2019-05-05T06:09:01.395Z,4.20
2019-05-05T06:12:05.453Z,4.27
2019-05-05T06:15:09.507Z,4.40
2019-05-05T06:18:13.843Z,3.70
2019-05-05T06:21:17.914Z,4.20
2019-05-05T06:24:21.594Z,4.28
2019-05-05T06:27:25.290Z,4.33
2019-05-05T06:30:29.468Z,4.83
2019-05-05T06:33:34.721Z,5.00
2019-05-05T06:36:38.602Z,4.17
2019-05-05T06:39:44.027Z,4.17
2019-05-05T06:42:54.993Z,4.03
2019-05-05T06:46:00.253Z,4.43
2019-05-05T06:49:04.355Z,4.17
2019-05-05T06:52:08.206Z,3.93
2019-05-05T06:55:14.122Z,4.30
2019-05-05T06:58:17.907Z,4.27
2019-05-05T07:01:21.654Z,4.47
2019-05-05T07:04:25.601Z,5.03
2019-05-05T07:07:29.501Z,4.07
2019-05-05T07:10:33.890Z,4.17
2019-05-05T07:13:37.849Z,4.30
2019-05-05T07:16:43.709Z,4.40
2019-05-05T07:19:46.953Z,4.87
2019-05-05T07:23:01.233Z,4.90
2019-05-05T07:25:56.140Z,4.57
2019-05-05T07:29:00.103Z,4.17
2019-05-05T07:32:04.148Z,4.00
2019-05-05T07:35:14.640Z,4.90
2019-05-05T07:38:18.429Z,3.83
2019-05-05T07:41:23.481Z,3.20
2019-05-05T07:44:29.665Z,3.70
2019-05-05T07:47:34.243Z,3.73
2019-05-05T07:50:38.365Z,4.27
2019-05-05T07:53:44.026Z,3.30
2019-05-05T07:56:47.536Z,3.53
2019-05-05T07:59:51.261Z,3.30
2019-05-05T08:02:54.966Z,3.20
2019-05-05T08:05:58.845Z,3.47
2019-05-05T08:09:04.105Z,3.37
2019-05-05T08:12:08.106Z,3.37
2019-05-05T08:15:14.644Z,3.57
2019-05-05T08:18:27.362Z,3.17
2019-05-05T08:21:31.058Z,3.30
2019-05-05T08:25:01.421Z,3.07
2019-05-05T08:28:23.667Z,3.10
2019-05-05T08:31:47.546Z,2.77
2019-05-05T08:34:59.820Z,2.80
2019-05-05T08:37:56.917Z,3.90
2019-05-05T08:41:00.610Z,3.50
2019-05-05T08:44:04.889Z,2.77
2019-05-05T08:47:08.537Z,3.00
2019-05-05T08:50:13.722Z,2.87
2019-05-05T08:53:17.547Z,3.10
2019-05-05T08:56:21.201Z,2.80
2019-05-05T08:59:25.199Z,2.63
2019-05-05T09:02:29.194Z,2.60
2019-05-05T09:05:34.295Z,3.08
2019-05-05T09:08:38.362Z,2.60
2019-05-05T09:11:43.806Z,2.40
2019-05-05T09:14:47.614Z,2.60
2019-05-05T09:17:51.347Z,2.73
2019-05-05T09:20:55.393Z,2.67
2019-05-05T09:24:03.243Z,2.63
2019-05-05T09:27:18.670Z,3.10
2019-05-05T09:30:37.447Z,3.17
2019-05-05T09:33:41.112Z,2.60
2019-05-05T09:36:45.077Z,2.97
2019-05-05T09:39:49.061Z,2.80
2019-05-05T09:42:53.580Z,2.77
2019-05-05T09:45:58.467Z,2.83
2019-05-05T09:49:04.564Z,2.83
2019-05-05T09:52:07.868Z,3.00
2019-05-05T09:55:13.698Z,2.83
2019-05-05T09:58:17.257Z,2.60
2019-05-05T10:01:21.186Z,2.90
2019-05-05T10:04:27.206Z,3.00
2019-05-05T10:07:31.113Z,2.97
2019-05-05T10:10:34.762Z,2.80
2019-05-05T10:13:38.913Z,2.80
2019-05-05T10:16:42.701Z,2.40
2019-05-05T10:19:46.459Z,2.80
2019-05-05T10:22:50.158Z,2.90
2019-05-05T10:25:58.067Z,3.07
2019-05-05T10:29:04.093Z,2.83
2019-05-05T10:32:07.538Z,2.63
2019-05-05T10:35:11.481Z,2.80
2019-05-05T10:38:15.221Z,2.77
2019-05-05T10:41:18.935Z,2.50
2019-05-05T10:44:22.622Z,2.57
2019-05-05T10:47:26.279Z,2.50
2019-05-05T10:50:30.501Z,2.70
2019-05-05T10:53:34.330Z,2.60
2019-05-05T10:56:38.001Z,2.40
2019-05-05T10:59:43.553Z,9.73
2019-05-05T11:02:59.487Z,3.00
2019-05-05T11:06:04.534Z,2.67
2019-05-05T11:09:09.010Z,6.93
2019-05-05T11:12:14.327Z,3.20
2019-05-05T11:15:18.262Z,3.90
2019-05-05T11:18:23.796Z,3.00
2019-05-05T11:21:27.807Z,2.73
2019-05-05T11:24:31.785Z,3.07
2019-05-05T11:27:35.489Z,3.12
2019-05-05T11:30:42.062Z,2.90
2019-05-05T11:34:08.011Z,2.63
2019-05-05T11:37:14.764Z,3.03
2019-05-05T11:40:31.413Z,2.73
2019-05-05T11:43:35.093Z,2.83
2019-05-05T11:46:38.821Z,2.90
2019-05-05T11:49:44.146Z,2.50
2019-05-05T11:52:48.006Z,2.40
2019-05-05T11:55:51.709Z,2.60
2019-05-05T11:58:55.463Z,2.60
2019-05-05T12:01:59.254Z,2.47
2019-05-05T12:05:04.562Z,2.60
2019-05-05T12:08:08.345Z,2.70
2019-05-05T12:11:15.133Z,2.63
2019-05-05T12:14:20.991Z,2.50
2019-05-05T12:17:37.007Z,2.93
2019-05-05T12:20:41.250Z,3.00
2019-05-05T12:23:44.963Z,3.30
2019-05-05T12:27:06.486Z,2.70
2019-05-05T12:30:14.161Z,2.67
2019-05-05T12:33:17.989Z,2.57
2019-05-05T12:36:23.632Z,2.40
2019-05-05T12:39:27.164Z,2.30
2019-05-05T12:42:30.866Z,2.17
2019-05-05T12:45:37.012Z,3.20
2019-05-05T12:48:43.699Z,2.70
2019-05-05T12:51:47.414Z,2.10
2019-05-05T12:54:54.616Z,2.20
2019-05-05T12:57:58.499Z,2.33
2019-05-05T13:01:07.640Z,2.40
2019-05-05T13:04:11.424Z,2.57
2019-05-05T13:07:15.182Z,2.37
2019-05-05T13:10:21.187Z,2.40
2019-05-05T13:13:24.939Z,2.40
2019-05-05T13:16:28.905Z,2.40
2019-05-05T13:19:45.825Z,2.70
2019-05-05T13:23:07.782Z,2.55
2019-05-05T13:26:19.725Z,2.70
2019-05-05T13:29:24.609Z,2.90
2019-05-05T13:32:29.850Z,2.52
2019-05-05T13:35:34.046Z,2.63
2019-05-05T13:38:37.898Z,2.63
2019-05-05T13:41:41.586Z,2.97
2019-05-05T13:45:03.955Z,2.70
2019-05-05T13:48:07.747Z,2.37
2019-05-05T13:51:11.570Z,2.30
2019-05-05T13:54:15.337Z,2.57
2019-05-05T13:57:19.559Z,2.47
2019-05-05T14:00:25.950Z,2.80
2019-05-05T14:03:29.616Z,2.83
2019-05-05T14:06:33.521Z,2.37
2019-05-05T14:09:37.343Z,2.60
2019-05-05T14:12:41.041Z,2.60
2019-05-05T14:15:44.958Z,2.60
2019-05-05T14:18:48.613Z,2.57
2019-05-05T14:21:53.847Z,2.50
2019-05-05T14:25:04.336Z,2.27
2019-05-05T14:28:08.209Z,2.47
2019-05-05T14:31:15.338Z,2.60
2019-05-05T14:34:28.313Z,2.47
2019-05-05T14:37:36.030Z,2.50
2019-05-05T14:40:39.746Z,2.47
2019-05-05T14:43:43.846Z,2.50
2019-05-05T14:46:47.685Z,2.40
2019-05-05T14:49:53.836Z,2.53
2019-05-05T14:52:57.373Z,2.30
2019-05-05T14:56:01.058Z,2.50
2019-05-05T14:59:04.978Z,2.67
2019-05-05T15:02:08.650Z,3.10
2019-05-05T15:05:30.042Z,2.63
2019-05-05T15:08:54.515Z,2.57
2019-05-05T15:12:04.976Z,2.80
2019-05-05T15:15:09.114Z,2.67
2019-05-05T15:18:14.509Z,2.70
2019-05-05T15:21:18.442Z,2.50
2019-05-05T15:24:24.366Z,2.50
2019-05-05T15:27:27.728Z,2.17
2019-05-05T15:30:33.504Z,2.47
2019-05-05T15:33:37.414Z,2.47
2019-05-05T15:36:41.086Z,2.10
2019-05-05T15:39:44.781Z,2.00
2019-05-05T15:42:48.702Z,2.40
2019-05-05T15:45:53.971Z,2.40
2019-05-05T15:48:57.923Z,2.60
2019-05-05T15:52:01.642Z,2.27
2019-05-05T15:55:05.638Z,2.20
2019-05-05T15:58:09.571Z,2.37
2019-05-05T16:01:14.248Z,2.30
2019-05-05T16:04:18.041Z,2.27
2019-05-05T16:07:21.715Z,2.10
2019-05-05T16:10:25.679Z,2.70
2019-05-05T16:13:29.488Z,2.57
2019-05-05T16:16:56.041Z,2.57
2019-05-05T16:20:07.253Z,2.20
2019-05-05T16:23:15.861Z,2.53
2019-05-05T16:26:19.629Z,2.47
2019-05-05T16:29:23.743Z,2.27
2019-05-05T16:32:27.573Z,2.57
2019-05-05T16:35:31.280Z,2.53
2019-05-05T16:38:35.016Z,2.20
2019-05-05T16:41:38.701Z,2.50
2019-05-05T16:44:43.375Z,2.60
2019-05-05T16:47:47.141Z,2.50
2019-05-05T16:50:50.837Z,2.30
2019-05-05T16:53:56.631Z,2.10
2019-05-05T16:57:00.168Z,2.37
2019-05-05T17:00:04.286Z,2.47
2019-05-05T17:03:08.077Z,2.50
2019-05-05T17:06:13.489Z,2.30
2019-05-05T17:09:17.263Z,2.40
2019-05-05T17:12:21.009Z,2.43
2019-05-05T17:15:43.968Z,2.57
2019-05-05T17:18:59.469Z,2.40
2019-05-05T17:22:29.046Z,2.23
2019-05-05T17:25:34.248Z,2.57
2019-05-05T17:28:38.319Z,2.50
2019-05-05T17:31:44.229Z,2.20
2019-05-05T17:38:51.341Z,2.20
2019-05-05T17:42:17.261Z,2.27
2019-05-05T17:45:27.435Z,2.60
2019-05-05T17:48:38.414Z,2.47
2019-05-05T17:51:56.726Z,2.50
2019-05-05T17:55:04.582Z,2.33
2019-05-05T17:58:08.446Z,2.63
2019-05-05T18:01:12.099Z,2.70
2019-05-05T18:04:16.537Z,2.52
2019-05-05T18:07:29.181Z,2.43
2019-05-05T18:10:40.544Z,2.30
2019-05-05T18:13:48.308Z,2.40
2019-05-05T18:16:54.047Z,2.40
2019-05-05T18:19:57.445Z,2.10
2019-05-05T18:23:01.139Z,2.50
2019-05-05T18:26:04.906Z,2.80
2019-05-05T18:29:08.613Z,2.90
2019-05-05T18:32:13.893Z,2.97
2019-05-05T18:35:17.748Z,2.60
2019-05-05T18:38:23.441Z,3.00
2019-05-05T18:41:34.440Z,2.80
2019-05-05T18:44:41.614Z,2.87
2019-05-05T18:47:45.324Z,2.63
2019-05-05T18:50:49.110Z,2.60
2019-05-05T18:53:54.912Z,2.63
2019-05-05T18:56:58.403Z,2.50
2019-05-05T19:00:03.795Z,2.90
2019-05-05T19:03:17.698Z,2.93
2019-05-05T19:06:34.378Z,3.10
2019-05-05T19:09:50.359Z,3.27
2019-05-05T19:12:44.292Z,3.20
2019-05-05T19:15:57.591Z,2.90
2019-05-05T19:19:03.512Z,3.17
2019-05-05T19:22:09.790Z,2.70
2019-05-05T19:25:16.472Z,3.25
2019-05-05T19:28:20.175Z,2.73
2019-05-05T19:31:24.518Z,3.40
2019-05-05T19:34:28.186Z,2.93
2019-05-05T19:37:33.524Z,2.90
2019-05-05T19:40:38.158Z,2.90
2019-05-05T19:43:55.074Z,3.40
2019-05-05T19:47:05.855Z,3.00
2019-05-05T19:50:41.233Z,3.03
2019-05-05T19:53:45.173Z,3.30
2019-05-05T19:56:48.864Z,3.57
2019-05-05T19:59:54.323Z,3.17
2019-05-05T20:03:04.533Z,3.20
2019-05-05T20:06:04.842Z,3.60
2019-05-05T20:09:09.311Z,3.50
2019-05-05T20:12:14.741Z,3.60
2019-05-05T20:15:25.789Z,3.63
2019-05-05T20:18:29.569Z,3.70
2019-05-05T20:21:34.665Z,3.53
2019-05-05T20:24:38.739Z,3.47
2019-05-05T20:27:42.431Z,3.27
2019-05-05T20:30:46.437Z,3.67
2019-05-05T20:34:13.522Z,3.40
2019-05-05T20:37:19.622Z,3.70
2019-05-05T20:40:27.312Z,4.10
2019-05-05T20:43:30.998Z,3.83
2019-05-05T20:46:34.713Z,3.83
2019-05-05T20:49:38.655Z,3.62
2019-05-05T20:52:44.199Z,3.60
2019-05-05T20:55:48.108Z,3.60
2019-05-05T20:58:51.813Z,4.53
2019-05-05T21:01:55.538Z,3.90
2019-05-05T21:04:59.193Z,4.13
2019-05-05T21:08:04.749Z,3.80
2019-05-05T21:11:08.282Z,4.17
2019-05-05T21:14:12.162Z,3.53
2019-05-05T21:17:15.943Z,3.50
2019-05-05T21:20:20.096Z,3.60
2019-05-05T21:23:48.922Z,3.70
2019-05-05T21:26:55.961Z,3.63
2019-05-05T21:29:59.618Z,3.80
2019-05-05T21:33:04.447Z,3.97
2019-05-05T21:36:08.327Z,3.97
2019-05-05T21:39:14.661Z,3.97
2019-05-05T21:42:17.701Z,4.00
2019-05-05T21:45:21.665Z,3.20
2019-05-05T21:48:25.611Z,3.40
2019-05-05T21:51:36.058Z,3.40
2019-05-05T21:54:47.021Z,3.40
2019-05-05T21:58:05.386Z,3.60
2019-05-05T22:01:21.068Z,3.40
2019-05-05T22:04:25.018Z,3.60
2019-05-05T22:07:28.749Z,3.43
2019-05-05T22:10:34.325Z,3.17
2019-05-05T22:13:38.410Z,3.47
2019-05-05T22:16:42.089Z,3.17
2019-05-05T22:19:55.374Z,3.47
2019-05-05T22:22:59.496Z,3.27
2019-05-05T22:26:04.141Z,3.50
2019-05-05T22:29:08.268Z,3.20
2019-05-05T22:32:13.907Z,3.47
2019-05-05T22:35:17.435Z,3.87
2019-05-05T22:38:21.147Z,3.67
2019-05-05T22:41:24.873Z,3.87
2019-05-05T22:44:28.615Z,4.33
2019-05-05T22:47:34.353Z,4.00
2019-05-05T22:50:37.772Z,4.00
2019-05-05T22:53:43.823Z,3.80
2019-05-05T22:56:46.851Z,3.90
2019-05-05T22:59:50.541Z,4.20
2019-05-05T23:03:01.265Z,4.40
2019-05-05T23:06:08.793Z,3.93
2019-05-05T23:09:14.763Z,4.10
2019-05-05T23:12:18.782Z,4.30
2019-05-05T23:15:25.318Z,4.47
2019-05-05T23:18:28.119Z,4.50
2019-05-05T23:21:37.766Z,3.90
2019-05-05T23:24:47.327Z,4.23
2019-05-05T23:27:50.981Z,4.07
2019-05-05T23:30:54.814Z,4.27
2019-05-05T23:33:58.497Z,4.80
2019-05-05T23:37:04.222Z,4.20
2019-05-05T23:40:08.219Z,4.57
2019-05-05T23:43:13.825Z,4.40
2019-05-05T23:46:17.291Z,5.13
2019-05-05T23:49:20.978Z,4.37
2019-05-05T23:52:24.649Z,4.80
2019-05-05T23:55:28.618Z,4.70
2019-05-05T23:58:34.648Z,4.63
